Погода Пьюрана неделю

Пьюра, Перу

13 - 19 июля
  • 13июля
    Сегодня
    +17°
    +28°
    Облачно с прояснениями
    ВремяПогодаТемператураВлажностьДавлениеВетер, м/сВероятность осадков
    01:00Облачно с прояснениями+19°C81 %759 мм4.3 м/с3 %
    04:00Облачно с прояснениями+18°C83 %758 мм4.1 м/с3 %
    07:00Пасмурно, сплошная облачность+17°C81 %759 мм3.4 м/с3 %
    10:00Практически безоблачно+20°C62 %759 мм3.5 м/с3 %
    13:00Облачно с прояснениями+25°C46 %757 мм4.8 м/с3 %
    16:00Ясно и безоблачно+28°C45 %756 мм6.6 м/с3 %
    19:00Ясно и безоблачно+23°C62 %757 мм7.0 м/с3 %
    22:00Ясно и безоблачно+20°C77 %759 мм5.6 м/с3 %
  • 14июля
    Воскресенье
    +16°
    +28°
    Ясно и безоблачно
    ВремяПогодаТемператураВлажностьДавлениеВетер, м/сВероятность осадков
    01:00Облачно с прояснениями+19°C84 %759 мм3.7 м/с3 %
    04:00Облачно с прояснениями+17°C83 %758 мм4.1 м/с3 %
    07:00Облачно с прояснениями+17°C81 %758 мм3.4 м/с3 %
    10:00Практически безоблачно+20°C60 %758 мм3.2 м/с3 %
    13:00Ясно и безоблачно+25°C44 %757 мм4.4 м/с3 %
    16:00Небольшая облачность+28°C41 %755 мм6.5 м/с3 %
    19:00Небольшая облачность+22°C62 %757 мм7.1 м/с3 %
    22:00Небольшая облачность+19°C73 %758 мм5.4 м/с3 %
  • 15июля
    Понедельник
    +16°
    +28°
    Ясно и безоблачно
    ВремяПогодаТемператураВлажностьДавлениеВетер, м/сВероятность осадков
    01:00Практически безоблачно+18°C80 %758 мм2.9 м/с3 %
    04:00Облачно с прояснениями+17°C86 %758 мм3.4 м/с3 %
    07:00Практически безоблачно+17°C87 %759 мм2.7 м/с3 %
    10:00Ясно и безоблачно+20°C61 %759 мм3.0 м/с3 %
    13:00Ясно и безоблачно+25°C44 %757 мм4.5 м/с3 %
    16:00Ясно и безоблачно+28°C41 %755 мм6.6 м/с3 %
    19:00Ясно и безоблачно+22°C63 %757 мм6.7 м/с3 %
    22:00Ясно и безоблачно+19°C74 %759 мм5.0 м/с3 %
  • 16июля
    Вторник
    +15°
    +28°
    Ясно и безоблачно
    ВремяПогодаТемператураВлажностьДавлениеВетер, м/сВероятность осадков
    01:00Ясно и безоблачно+18°C78 %759 мм2.8 м/с3 %
    04:00Ясно и безоблачно+17°C85 %758 мм3.0 м/с3 %
    07:00Ясно и безоблачно+17°C85 %759 мм2.3 м/с3 %
    10:00Ясно и безоблачно+20°C59 %759 мм3.0 м/с3 %
    13:00Ясно и безоблачно+25°C42 %757 мм4.8 м/с3 %
    16:00Ясно и безоблачно+28°C40 %755 мм7.3 м/с3 %
    19:00Ясно и безоблачно+22°C62 %757 мм6.4 м/с3 %
    22:00Ясно и безоблачно+19°C75 %759 мм5.3 м/с3 %
  • 17июля
    Среда
    +15°
    +30°
    Ясно и безоблачно
    ВремяПогодаТемператураВлажностьДавлениеВетер, м/сВероятность осадков
    01:00Ясно и безоблачно+18°C81 %759 мм2.9 м/с3 %
    04:00Ясно и безоблачно+17°C86 %758 мм3.0 м/с3 %
    07:00Ясно и безоблачно+16°C87 %759 мм2.1 м/с3 %
    10:00Ясно и безоблачно+20°C55 %760 мм3.1 м/с3 %
    13:00Ясно и безоблачно+25°C40 %758 мм4.5 м/с3 %
    16:00Ясно и безоблачно+28°C41 %756 мм6.4 м/с3 %
    19:00Ясно и безоблачно+22°C60 %758 мм6.3 м/с3 %
    22:00Ясно и безоблачно+19°C77 %760 мм5.2 м/с3 %
Мы используем cookies
Соглашаюсь